Jason Boyata

Chefscout - KV Oostende
3 Apr 2027
Samstag
Verarbeitung

Persönlichkeit

Anpassungsfähigkeit (7) Ehrgeiz (9) Kontroverse (15) Loyalität (1) Druck (8) Professionalität (12) Fairness (13) Temperament (9)

Profil

Trainerstil Demokratisch
Lizenz Kontinentale Pro
Entschlossenheit 9
Menschenführung 5
Motivation 10
Disziplin 9
Arbeitszufriedenheit
30%
Ermüdung
0%
Rolle Chefscout
Gehalt 13.9K p/W
Vertrag 14.03.2028

Leistung

Verhalten Gut
Trainingseffektivität
12%
Spielerentwicklung
25%
Verletzungsprävention
25%
Taktische Umsetzung
25%

Letzte Ereignisse

Spieler begutachtet jetzt
Nahm an einer Scouting-Besprechung teil jetzt
Spieler begutachtet 7T her
Nahm an einer Scouting-Besprechung teil 7T her
Nahm an einer Scouting-Besprechung teil 7T her
Spieler begutachtet 7T her
Spieler begutachtet 7T her
Spieler begutachtet 14T her

Aktuell beobachtet

124
Spieler Verein Status Fähigkeit Vertrauen Beobachtet Zuletzt beobachtet Letzte Stimme
Kauã Elias Shakhtar Aktiv 137 / 128 40% 4 02.04.2027 -
Marcel Reguła Zaglebie Aktiv 97 / 112 40% 5 02.04.2027 -
Luke Baartman Chippa United Aktiv 93 / 109 40% 7 30.03.2027 -
Anestis Mythou PAOK Aktiv 88 / 102 40% 2 30.03.2027 -
Moslem Anatouf ES Setif Aktiv 110 / 99 40% 2 29.03.2027 -
Dramane Kamagaté USM Alger Aktiv 95 / 107 40% 4 29.03.2027 -
Sifiso Dala Platinum Stars Aktiv 87 / 93 40% 3 28.03.2027 -
Iwan Morgan Grimsby Town Aktiv 113 / 108 40% 4 23.03.2027 -
Luis Fernando Santa Clara Aktiv 110 / 108 40% 1 23.03.2027 -
Uriël Van Aalst Willem II Aktiv 117 / 106 40% 11 22.03.2027 -
Markus Jensen Nacional Aktiv 106 / 110 40% 1 22.03.2027 -
Noah Mokhtari Stade Brestois Aktiv 104 / 95 40% 4 20.03.2027 -
Prince Chibuzor Emmanuel Zlin Aktiv 91 / 82 40% 2 20.03.2027 -
David Kalokoh Ajax Aktiv 121 / 120 40% 8 18.03.2027 -
Dimitris Rallis Legia Aktiv 97 / 117 40% 1 18.03.2027 -
Jonás Luna Osasuna Aktiv 114 / 119 40% 3 17.03.2027 -
Mathías González Ermis Aktiv 100 / 89 40% 2 17.03.2027 -
Risilanu Ismail El-Kanemi Warriors Aktiv 93 / 101 40% 1 15.03.2027 -
Dom Ballard Leyton Orient Aktiv 107 / 123 40% 1 15.03.2027 -
Nicolas Verkooijen PSV Aktiv 99 / 119 40% 6 13.03.2027 -
Luca Maiorano Waasland-Beveren Aktiv 84 / 100 40% 2 13.03.2027 -
Shandre Campbell KV Kortrijk Aktiv 104 / 124 40% 2 11.03.2027 -
Ichem Ferrah Pisa Aktiv 102 / 121 40% 1 11.03.2027 -
Ben Ahmed Kohili Paradou Aktiv 101 / 117 40% 4 09.03.2027 -
Shunsuke Saito Westerlo Aktiv 115 / 110 40% 4 07.03.2027 -
Matvii Ponomarenko Dynamo Kyiv Aktiv 106 / 117 40% 4 05.03.2027 -
Nathan Mbala FC Metz Aktiv 92 / 106 40% 2 04.03.2027 -
Roberto Iliev Slavia Sofia Aktiv 104 / 95 40% 2 03.03.2027 -
Maksym Uhryniuk Nyva Aktiv 76 / 87 40% 2 02.03.2027 -
Dani Ángel Crawley Town Aktiv 104 / 98 40% 2 27.02.2027 -
Sonny Finch Grimsby Town Aktiv 96 / 94 40% 1 27.02.2027 -
Ezekiel Kwame Alladoh Philadelphia Union Aktiv 134 / 124 40% 4 26.02.2027 -
Tiago Pucciarelli FK Senica Aktiv 103 / 107 40% 5 26.02.2027 -
Karem Zoabi Torreense Aktiv 117 / 114 40% 1 25.02.2027 -
Jah-Mason Telusson Olympique de Marseille Aktiv 74 / 98 40% 3 24.02.2027 -
Tommy St. Jago KV Mechelen Aktiv 110 / 115 40% 3 21.02.2027 -
Danil Glebov Dinamo Moscow Aktiv 115 / 121 40% 2 21.02.2027 -
Alagie Wally Veres Aktiv 87 / 98 40% 1 21.02.2027 -
Max Conway Bolton Wanderers Aktiv 105 / 117 40% 2 20.02.2027 -
Aiham Ousou Charleroi Aktiv 126 / 123 40% 1 20.02.2027 -
Thalente Mbatha Orlando Pirates Aktiv 120 / 112 40% 1 18.02.2027 -
Jack Currie Oxford United Aktiv 115 / 127 40% 3 16.02.2027 -
Vanja Dragojević Partizan Aktiv 128 / 115 40% 1 16.02.2027 -
Nacer Tielemans Mouscron Aktiv 133 / 138 40% 1 16.02.2027 -
Joel Ordóñez Club Brugge Aktiv 143 / 132 40% 1 16.02.2027 -
Oumar Camara Vitoria Guimaraes Aktiv 132 / 128 40% 1 16.02.2027 -
Matteo Dams Club Brugge Aktiv 136 / 129 40% 2 14.02.2027 -
Mike Eerdhuijzen KV Mechelen Aktiv 137 / 117 40% 1 14.02.2027 -
Gora Diouf KV Mechelen Aktiv 104 / 114 40% 1 13.02.2027 -
Ognjen Bondžulić Mladost Lucani Aktiv 107 / 107 40% 4 11.02.2027 -
Robert-Jan Vanwesemael Sint-Truiden Aktiv 128 / 124 40% 2 10.02.2027 -
Théo Le Bris FC Lorient Aktiv 114 / 132 40% 1 10.02.2027 -
Dominik Baumgartner Mattersburg Aktiv 90 / 114 40% 2 08.02.2027 -
Łukasz Łakomy OH Leuven Aktiv 119 / 124 40% 1 08.02.2027 -
Tomás Ribeiro Cultural Leonesa Aktiv 107 / 120 40% 2 07.02.2027 -
Mardochée Nzita Charleroi Aktiv 122 / 108 40% 1 07.02.2027 -
Naledi Hlongwane Victoria United Aktiv 83 / 96 40% 3 06.02.2027 -
Alexandr Chernikov Krasnodar Aktiv 146 / 130 40% 1 05.02.2027 -
Kingsley Olufade LOSC Lille Aktiv 91 / 95 40% 2 03.02.2027 -
Armin Sivić De Graafschap Aktiv 99 / 94 40% 3 02.02.2027 -
Paris Brunner Monaco Aktiv 104 / 115 40% 2 01.02.2027 -
Ciprian Coman Pandurii Aktiv 116 / 117 40% 5 28.01.2027 -
Anas Alaoui Lecco Aktiv 95 / 106 40% 1 28.01.2027 -
Tiago Araújo KAA Gent Aktiv 133 / 112 40% 1 26.01.2027 -
Niklas Vesterlund Utrecht Aktiv 112 / 113 40% 2 23.01.2027 -
Enrique Lofolomo Zulte Waregem Aktiv 99 / 104 40% 1 23.01.2027 -
Luther Zwane Platinum Stars Aktiv 101 / 112 40% 4 19.01.2027 -
Jelle Vossen Zulte Waregem Aktiv 125 / 117 44% 1 18.01.2027 -
Fredrik Hammar KV Mechelen Aktiv 117 / 113 40% 1 18.01.2027 -
Gift Zwane Platinum Stars Aktiv 108 / 113 40% 1 18.01.2027 -
Sieben Dewaele Waasland-Beveren Aktiv 125 / 111 40% 1 17.01.2027 -
Merchas Doski Viktoria Plzen Aktiv 131 / 120 40% 1 16.01.2027 -
Ethan Pye Stockport County Aktiv 107 / 114 40% 1 11.01.2027 -
Serge Daura Gazelle Garoua Aktiv 82 / 89 40% 2 05.01.2027 -
Jules Kalczynski Nimes Aktiv 79 / 86 40% 1 05.01.2027 -
Trévis Dago Stade Lavallois Aktiv 105 / 119 40% 2 26.12.2026 -
Matthew Amoah Jr. Feyenoord Aktiv 94 / 114 40% 4 25.12.2026 -
Julián Vignolo Toulouse FC Aktiv 104 / 115 40% 1 25.12.2026 -
Anthony Smits AZ Aktiv 97 / 115 40% 5 22.12.2026 -
Rocco Vata Watford Aktiv 127 / 125 40% 1 13.12.2026 -
Arkaitz Mariezkurrena Real Sociedad Abgelehnt 126 / 117 40% 1 10.12.2026 Mehr Infos nötig
Romelu Mignolet Mouscron Aktiv 118 / 117 40% 1 10.12.2026 -
Anton Tanghe Zulte Waregem Aktiv 118 / 106 40% 1 08.12.2026 -
Wouter Prins Groningen Abgelehnt 110 / 117 40% 1 07.12.2026 Mehr Infos nötig
Bohdan Budko AZ Aktiv 105 / 117 40% 1 07.12.2026 -
Fabiano Rust Feyenoord Aktiv 118 / 110 40% 3 30.11.2026 -
Jonathan Acquah WAFA Aktiv 60 / 89 40% 1 26.11.2026 -
Rayan Kolli Queens Park Rangers Aktiv 109 / 119 40% 1 25.11.2026 -
Tony Mendy AJ Auxerre Aktiv 75 / 92 40% 2 20.11.2026 -
Alexander Lyng SonderjyskE Aktiv 94 / 128 40% 4 20.11.2026 -
Sinoxolo Kwayiba Chippa United Aktiv 91 / 121 40% 1 17.11.2026 -
Chaverello Hellings AZ Aktiv 89 / 101 40% 3 10.11.2026 -
Saba Sazonov Juve Stabia Aktiv 135 / 127 40% 1 10.11.2026 -
Kamogelo Sebelebele Orlando Pirates Aktiv 100 / 121 40% 1 10.11.2026 -
Nicolás Azambuja Danubio Aktiv 120 / 127 40% 1 05.11.2026 -
Zak Swanson Doncaster Rovers Aktiv 104 / 113 40% 1 04.11.2026 -
Juan Manuel Sanabria Real Salt Lake Aktiv 110 / 118 40% 1 04.11.2026 -
Alasana Yirajang Slovan Bratislava Aktiv 103 / 114 40% 3 29.10.2026 -
Néhémie Lurika Olympique Lyonnais Aktiv 89 / 93 40% 1 29.10.2026 -
Bruno Caicedo Vancouver Whitecaps Aktiv 120 / 108 40% 3 26.10.2026 -
Siegert Baartmans Willem II Aktiv 105 / 107 40% 2 22.10.2026 -
Tómas Johannessen AZ Aktiv 107 / 102 40% 2 18.10.2026 -
Jalal Abdullai Molde Aktiv 103 / 116 40% 1 15.10.2026 -
Dylan Cabral Arsenal Aktiv 84 / 98 40% 1 14.10.2026 -
Keagan Manyama Ajax Cape Town Aktiv 116 / 124 40% 1 12.10.2026 -
Mujaid Sadick Racing Genk Aktiv 120 / 131 40% 1 12.10.2026 -
Naj Lulić Zwolle Aktiv 75 / 87 40% 1 08.10.2026 -
Walter Juárez Güemes Aktiv 122 / 106 40% 1 08.10.2026 -
Ho-yeon Jung Minnesota United FC Aktiv 116 / 113 40% 1 08.10.2026 -
Mathys Houdayer Stade Lavallois Aktiv 96 / 93 40% 1 06.10.2026 -
Kimito Nono Gamba Osaka Aktiv 133 / 117 40% 1 05.10.2026 -
Aboubacar Sidibé Sochaux Aktiv 99 / 92 40% 1 01.10.2026 -
Nikita Kuzin Kaluga Aktiv 85 / 87 40% 1 30.09.2026 -
Erik Flataker AIK Aktiv 97 / 104 40% 1 29.09.2026 -
Darren Yapi Colorado Rapids Aktiv 107 / 107 40% 4 28.09.2026 -
Chineme Chinonso Ikorodu City Aktiv 93 / 106 40% 1 23.09.2026 -
Archie Goodwin Charlotte Football Club Aktiv 97 / 121 40% 2 22.09.2026 -
Tosin Olawale El-Kanemi Warriors Aktiv 88 / 84 40% 1 11.09.2026 -
Ibrahim Kanté Stade Brestois Aktiv 88 / 87 40% 1 10.09.2026 -
David Fernández O'Higgins Aktiv 102 / 117 40% 1 04.09.2026 -
Ruben Ramos LA Galaxy Aktiv 104 / 92 40% 1 04.09.2026 -
Justin-Noël Kalumba Mallorca Aktiv 101 / 116 40% 1 03.09.2026 -
Jermaine Rijssel Heerenveen Aktiv 97 / 84 40% 2 13.08.2026 -
Jesús Ricardo Angulo Toluca Aktiv 114 / 128 40% 1 01.08.2026 -